Time;durP1;ratioP1;P1;durP2;ratioP2;P2;SDS_P1;SDS_P2;PMS_P1;PMS_P2;Temp;Humidity;BMP_temperature;BMP_pressure;BME280_temperature;BME280_humidity;BME280_pressure;Samples;Min_cycle;Max_cycle;Signal;HPM_P1;HPM_P2
2022/12/22 16:04:07;;;;;;;2.47;1.73;;;12.00;99.90;;;;;;21235757;27;20552;-70
2022/12/22 16:14:12;;;;;;;2.97;1.90;;;11.20;99.90;;;;;;21236116;28;20211;-72
2022/12/22 16:24:25;;;;;;;2.70;1.60;;;10.90;99.90;;;;;;21234762;28;20217;-70
2022/12/22 16:34:26;;;;;;;4.10;1.70;;;10.80;99.90;;;;;;21235131;28;20233;-72
2022/12/22 16:44:28;;;;;;;1.83;1.60;;;10.80;99.90;;;;;;21233734;28;20208;-71
2022/12/22 16:54:30;;;;;;;2.07;1.60;;;10.70;99.90;;;;;;21232863;28;20237;-74
2022/12/22 17:04:32;;;;;;;1.90;1.70;;;10.60;99.90;;;;;;21232742;28;20213;-71
2022/12/22 17:14:36;;;;;;;2.73;1.90;;;10.70;99.90;;;;;;21177586;28;20236;-71
2022/12/22 17:24:38;;;;;;;4.33;1.90;;;10.70;99.90;;;;;;21174804;28;20680;-72
2022/12/22 17:34:40;;;;;;;1.90;1.70;;;10.70;99.90;;;;;;21171256;28;20228;-72
2022/12/22 17:44:42;;;;;;;2.20;1.60;;;10.70;99.90;;;;;;21172774;28;20209;-69
2022/12/22 17:54:46;;;;;;;3.87;2.33;;;10.80;99.90;;;;;;21171489;28;20240;-68
2022/12/22 18:04:48;;;;;;;2.60;1.83;;;10.80;99.90;;;;;;21171465;28;20204;-71
2022/12/22 18:14:51;;;;;;;3.93;2.30;;;10.80;99.90;;;;;;21152191;28;20278;-71
2022/12/22 18:24:53;;;;;;;4.00;2.60;;;10.70;99.90;;;;;;21168466;28;20266;-69
2022/12/22 18:34:55;;;;;;;9.37;3.80;;;10.60;99.90;;;;;;21169030;28;20583;-72
2022/12/22 18:44:57;;;;;;;12.47;5.20;;;10.60;99.90;;;;;;21167523;28;20208;-71
2022/12/22 18:54:59;;;;;;;14.90;3.90;;;10.60;99.90;;;;;;21166834;28;20730;-70
2022/12/22 19:05:01;;;;;;;11.90;5.03;;;10.70;99.90;;;;;;21166735;28;20537;-69
2022/12/22 19:15:05;;;;;;;14.80;4.27;;;10.70;99.90;;;;;;21165226;28;20233;-73
2022/12/22 19:25:12;;;;;;;17.77;5.07;;;10.70;99.90;;;;;;21164789;28;20213;-73
2022/12/22 19:35:17;;;;;;;18.50;5.17;;;10.80;99.90;;;;;;21164433;28;20265;-71
2022/12/22 19:45:25;;;;;;;24.13;5.00;;;10.90;99.90;;;;;;21163475;28;20213;-73
2022/12/22 19:55:31;;;;;;;23.33;4.90;;;10.90;99.90;;;;;;21163143;28;20252;-73
2022/12/22 20:09:20;;;;;;;23.10;5.10;;;10.90;99.90;;;;;;21068098;28;20571;-72
2022/12/22 20:19:22;;;;;;;19.40;4.73;;;;;;;;;;21066438;28;20214;-72
2022/12/22 20:29:24;;;;;;;20.40;4.37;;;11.00;99.90;;;;;;21066766;28;20214;-72
2022/12/22 20:39:25;;;;;;;17.57;4.20;;;11.10;99.90;;;;;;21065954;28;20562;-72
2022/12/22 20:56:35;;;;;;;20.10;4.37;;;11.00;99.90;;;;;;21068143;28;20567;-71
2022/12/22 21:06:41;;;;;;;20.27;3.50;;;11.00;99.90;;;;;;21067690;28;20229;-71
2022/12/22 21:16:43;;;;;;;13.13;4.10;;;11.00;99.90;;;;;;21066650;28;20206;-71
2022/12/22 21:26:49;;;;;;;14.43;3.63;;;11.00;99.90;;;;;;21065787;28;20229;-71
2022/12/22 21:36:58;;;;;;;13.63;3.47;;;10.90;99.90;;;;;;21065277;28;20261;-71
2022/12/22 21:47:00;;;;;;;18.50;4.00;;;10.90;99.90;;;;;;21063681;28;20280;-70
2022/12/22 21:57:03;;;;;;;12.93;3.37;;;10.90;99.90;;;;;;21063274;28;20219;-71
2022/12/22 22:07:04;;;;;;;14.97;3.33;;;10.90;99.90;;;;;;21094312;28;20699;-71
2022/12/22 22:17:07;;;;;;;12.27;3.30;;;10.90;99.90;;;;;;21089643;28;20202;-72
2022/12/22 22:27:09;;;;;;;11.80;3.23;;;10.90;99.90;;;;;;21088670;28;20228;-71
2022/12/22 22:37:10;;;;;;;14.07;3.33;;;10.90;99.90;;;;;;21089016;28;20266;-72
2022/12/22 22:47:12;;;;;;;8.90;2.80;;;10.90;99.90;;;;;;21087207;28;20777;-73
2022/12/22 22:57:14;;;;;;;11.63;2.87;;;10.90;99.90;;;;;;21086521;28;20255;-73
2022/12/22 23:07:16;;;;;;;11.43;2.90;;;;;;;;;;21085594;28;20233;-73
2022/12/22 23:17:18;;;;;;;9.17;2.67;;;10.90;99.90;;;;;;21084224;28;20554;-73
2022/12/22 23:27:19;;;;;;;11.23;2.60;;;10.90;99.90;;;;;;21083949;28;20237;-73
2022/12/22 23:37:21;;;;;;;8.80;2.13;;;10.90;99.90;;;;;;21083384;28;20269;-73
2022/12/22 23:47:23;;;;;;;11.57;2.37;;;10.80;99.90;;;;;;21082817;28;20237;-73
2022/12/22 23:57:25;;;;;;;4.47;2.07;;;;;;;;;;21082169;28;20201;-73
